sensor_id;sensor_type;location;lat;lon;timestamp;pressure;altitude;pressure_sealevel;temperature;humidity
75188;BME280;63762;51.334;22.108;2023-04-25T00:02:29;100459.20;;;13.76;69.59
75188;BME280;63762;51.334;22.108;2023-04-25T00:12:37;100462.68;;;13.59;69.71
75188;BME280;63762;51.334;22.108;2023-04-25T00:22:44;100444.53;;;13.41;70.03
75188;BME280;63762;51.334;22.108;2023-04-25T00:32:51;100444.88;;;13.19;70.20
75188;BME280;63762;51.334;22.108;2023-04-25T00:42:59;100452.25;;;12.98;70.16
75188;BME280;63762;51.334;22.108;2023-04-25T00:53:06;100459.09;;;12.93;70.08
75188;BME280;63762;51.334;22.108;2023-04-25T01:03:13;100454.84;;;12.71;69.00
75188;BME280;63762;51.334;22.108;2023-04-25T01:13:19;100461.93;;;12.72;70.18
75188;BME280;63762;51.334;22.108;2023-04-25T01:23:26;100448.99;;;12.66;70.07
75188;BME280;63762;51.334;22.108;2023-04-25T01:33:34;100456.24;;;12.56;70.75
75188;BME280;63762;51.334;22.108;2023-04-25T01:43:41;100446.59;;;12.44;70.55
75188;BME280;63762;51.334;22.108;2023-04-25T01:53:48;100438.20;;;12.28;70.90
75188;BME280;63762;51.334;22.108;2023-04-25T02:03:55;100427.51;;;12.08;71.73
75188;BME280;63762;51.334;22.108;2023-04-25T02:14:02;100422.12;;;12.08;71.49
75188;BME280;63762;51.334;22.108;2023-04-25T02:24:09;100420.66;;;12.04;71.61
75188;BME280;63762;51.334;22.108;2023-04-25T02:34:16;100418.97;;;12.03;71.89
75188;BME280;63762;51.334;22.108;2023-04-25T02:44:24;100407.35;;;12.02;71.95
75188;BME280;63762;51.334;22.108;2023-04-25T02:54:31;100417.24;;;11.92;72.10
75188;BME280;63762;51.334;22.108;2023-04-25T03:04:38;100409.72;;;11.56;72.93
75188;BME280;63762;51.334;22.108;2023-04-25T03:14:45;100394.97;;;11.60;72.59
75188;BME280;63762;51.334;22.108;2023-04-25T03:24:52;100403.55;;;11.65;72.53
75188;BME280;63762;51.334;22.108;2023-04-25T03:34:59;100409.26;;;11.72;73.26
75188;BME280;63762;51.334;22.108;2023-04-25T03:45:08;100412.25;;;11.78;74.10
75188;BME280;63762;51.334;22.108;2023-04-25T03:55:13;100422.21;;;11.87;73.54
75188;BME280;63762;51.334;22.108;2023-04-25T04:05:20;100415.40;;;11.93;73.93
75188;BME280;63762;51.334;22.108;2023-04-25T04:15:28;100432.59;;;12.01;74.00
75188;BME280;63762;51.334;22.108;2023-04-25T04:25:35;100460.42;;;12.02;73.04
75188;BME280;63762;51.334;22.108;2023-04-25T04:35:42;100450.77;;;11.99;73.84
75188;BME280;63762;51.334;22.108;2023-04-25T04:45:50;100452.20;;;12.03;72.92
75188;BME280;63762;51.334;22.108;2023-04-25T04:55:56;100459.01;;;12.07;74.12
75188;BME280;63762;51.334;22.108;2023-04-25T05:06:03;100452.48;;;12.10;73.53
75188;BME280;63762;51.334;22.108;2023-04-25T05:16:11;100459.14;;;12.06;74.02
75188;BME280;63762;51.334;22.108;2023-04-25T05:26:17;100461.55;;;11.99;75.73
75188;BME280;63762;51.334;22.108;2023-04-25T05:36:25;100452.70;;;11.88;76.56
75188;BME280;63762;51.334;22.108;2023-04-25T05:46:32;100457.85;;;12.00;77.27
75188;BME280;63762;51.334;22.108;2023-04-25T05:56:39;100468.70;;;12.19;77.47
75188;BME280;63762;51.334;22.108;2023-04-25T06:06:46;100452.24;;;12.22;77.30
75188;BME280;63762;51.334;22.108;2023-04-25T06:16:53;100457.88;;;12.10;77.77
75188;BME280;63762;51.334;22.108;2023-04-25T06:27:00;100450.79;;;12.09;77.59
75188;BME280;63762;51.334;22.108;2023-04-25T06:37:07;100440.72;;;12.11;78.33
75188;BME280;63762;51.334;22.108;2023-04-25T06:47:15;100445.40;;;12.18;78.32
75188;BME280;63762;51.334;22.108;2023-04-25T06:57:22;100448.99;;;12.38;78.60
75188;BME280;63762;51.334;22.108;2023-04-25T07:07:29;100451.85;;;12.55;78.38
75188;BME280;63762;51.334;22.108;2023-04-25T07:17:36;100454.24;;;12.39;78.70
75188;BME280;63762;51.334;22.108;2023-04-25T07:27:43;100447.98;;;12.29;78.53
75188;BME280;63762;51.334;22.108;2023-04-25T07:37:50;100460.48;;;12.30;78.92
75188;BME280;63762;51.334;22.108;2023-04-25T07:47:58;100471.86;;;12.34;79.57
75188;BME280;63762;51.334;22.108;2023-04-25T07:58:05;100464.21;;;12.48;79.66
75188;BME280;63762;51.334;22.108;2023-04-25T08:08:12;100470.43;;;12.49;80.30
75188;BME280;63762;51.334;22.108;2023-04-25T08:18:19;100482.51;;;12.35;80.54
75188;BME280;63762;51.334;22.108;2023-04-25T08:28:26;100480.12;;;12.51;80.87
75188;BME280;63762;51.334;22.108;2023-04-25T08:38:33;100462.77;;;12.63;80.69
75188;BME280;63762;51.334;22.108;2023-04-25T08:48:42;100473.01;;;12.69;80.89
75188;BME280;63762;51.334;22.108;2023-04-25T08:58:48;100489.77;;;12.63;80.92
75188;BME280;63762;51.334;22.108;2023-04-25T09:08:54;100490.95;;;12.70;80.92
75188;BME280;63762;51.334;22.108;2023-04-25T09:19:01;100494.32;;;12.72;80.92
75188;BME280;63762;51.334;22.108;2023-04-25T09:29:09;100504.42;;;12.70;81.13
75188;BME280;63762;51.334;22.108;2023-04-25T09:39:16;100502.01;;;12.67;81.80
75188;BME280;63762;51.334;22.108;2023-04-25T09:49:25;100504.83;;;12.56;82.17
75188;BME280;63762;51.334;22.108;2023-04-25T09:59:31;100510.63;;;12.42;82.26
75188;BME280;63762;51.334;22.108;2023-04-25T10:09:39;100503.42;;;12.03;81.29
75188;BME280;63762;51.334;22.108;2023-04-25T10:19:45;100508.11;;;11.71;81.87
75188;BME280;63762;51.334;22.108;2023-04-25T10:40:11;100510.78;;;10.89;83.22
75188;BME280;63762;51.334;22.108;2023-04-25T10:50:16;100534.12;;;10.68;82.96
75188;BME280;63762;51.334;22.108;2023-04-25T11:00:19;100532.30;;;10.68;84.32
75188;BME280;63762;51.334;22.108;2023-04-25T11:10:29;100545.88;;;10.56;83.18
75188;BME280;63762;51.334;22.108;2023-04-25T11:20:30;100536.29;;;10.31;84.57
75188;BME280;63762;51.334;22.108;2023-04-25T11:33:42;100548.36;;;10.48;83.01
75188;BME280;63762;51.334;22.108;2023-04-25T11:43:49;100552.08;;;10.25;82.40
75188;BME280;63762;51.334;22.108;2023-04-25T11:53:57;100559.74;;;10.29;82.93
75188;BME280;63762;51.334;22.108;2023-04-25T12:04:13;100554.29;;;10.09;83.13
75188;BME280;63762;51.334;22.108;2023-04-25T12:14:21;100543.48;;;9.98;83.80
75188;BME280;63762;51.334;22.108;2023-04-25T12:24:26;100549.63;;;10.11;84.01
75188;BME280;63762;51.334;22.108;2023-04-25T12:34:28;100546.41;;;9.95;84.18
75188;BME280;63762;51.334;22.108;2023-04-25T12:44:32;100547.92;;;10.10;83.23
75188;BME280;63762;51.334;22.108;2023-04-25T12:54:39;100548.51;;;9.91;83.09
75188;BME280;63762;51.334;22.108;2023-04-25T13:04:46;100539.20;;;9.84;83.58
75188;BME280;63762;51.334;22.108;2023-04-25T13:14:54;100546.41;;;9.95;82.91
75188;BME280;63762;51.334;22.108;2023-04-25T13:25:01;100539.60;;;9.80;82.22
75188;BME280;63762;51.334;22.108;2023-04-25T13:35:12;100532.26;;;9.82;82.89
75188;BME280;63762;51.334;22.108;2023-04-25T13:45:15;100532.88;;;9.85;82.03
75188;BME280;63762;51.334;22.108;2023-04-25T13:55:22;100532.02;;;9.85;82.52
75188;BME280;63762;51.334;22.108;2023-04-25T14:05:29;100543.61;;;9.96;82.63
75188;BME280;63762;51.334;22.108;2023-04-25T14:15:36;100541.30;;;9.81;82.09
75188;BME280;63762;51.334;22.108;2023-04-25T14:25:44;100548.13;;;9.85;82.44
75188;BME280;63762;51.334;22.108;2023-04-25T14:35:51;100535.55;;;9.96;82.39
75188;BME280;63762;51.334;22.108;2023-04-25T14:45:58;100530.55;;;10.03;81.85
75188;BME280;63762;51.334;22.108;2023-04-25T14:56:05;100540.56;;;10.01;81.93
75188;BME280;63762;51.334;22.108;2023-04-25T15:06:12;100552.41;;;9.98;82.33
75188;BME280;63762;51.334;22.108;2023-04-25T15:16:19;100548.61;;;9.79;81.90
75188;BME280;63762;51.334;22.108;2023-04-25T15:26:27;100545.94;;;9.68;82.09
75188;BME280;63762;51.334;22.108;2023-04-25T15:36:34;100554.59;;;9.60;82.97
75188;BME280;63762;51.334;22.108;2023-04-25T15:46:41;100548.82;;;9.54;82.08
75188;BME280;63762;51.334;22.108;2023-04-25T15:56:48;100561.62;;;9.39;82.15
75188;BME280;63762;51.334;22.108;2023-04-25T16:06:55;100559.55;;;9.32;82.54
75188;BME280;63762;51.334;22.108;2023-04-25T16:17:02;100566.38;;;9.36;81.54
75188;BME280;63762;51.334;22.108;2023-04-25T16:27:10;100577.59;;;9.30;81.22
75188;BME280;63762;51.334;22.108;2023-04-25T16:37:17;100591.94;;;9.18;81.88
75188;BME280;63762;51.334;22.108;2023-04-25T16:47:23;100597.37;;;9.29;83.16
75188;BME280;63762;51.334;22.108;2023-04-25T16:57:31;100606.31;;;9.40;83.04
75188;BME280;63762;51.334;22.108;2023-04-25T17:07:38;100615.40;;;9.27;83.95
75188;BME280;63762;51.334;22.108;2023-04-25T17:17:45;100627.92;;;9.15;84.21
75188;BME280;63762;51.334;22.108;2023-04-25T17:27:52;100639.30;;;9.19;84.30
75188;BME280;63762;51.334;22.108;2023-04-25T17:38:00;100658.99;;;9.06;84.99
75188;BME280;63762;51.334;22.108;2023-04-25T17:48:06;100670.63;;;8.94;84.33
75188;BME280;63762;51.334;22.108;2023-04-25T17:58:14;100693.03;;;8.70;84.44
75188;BME280;63762;51.334;22.108;2023-04-25T18:08:21;100683.93;;;8.60;85.02
75188;BME280;63762;51.334;22.108;2023-04-25T18:18:28;100691.84;;;8.74;84.89
75188;BME280;63762;51.334;22.108;2023-04-25T18:28:35;100718.04;;;8.70;84.59
75188;BME280;63762;51.334;22.108;2023-04-25T18:38:42;100712.27;;;8.51;84.91
75188;BME280;63762;51.334;22.108;2023-04-25T18:48:53;100730.28;;;8.24;84.71
75188;BME280;63762;51.334;22.108;2023-04-25T18:58:56;100739.30;;;8.23;84.72
75188;BME280;63762;51.334;22.108;2023-04-25T19:09:03;100726.19;;;8.06;84.57
75188;BME280;63762;51.334;22.108;2023-04-25T19:19:10;100745.66;;;7.83;84.65
75188;BME280;63762;51.334;22.108;2023-04-25T19:29:18;100742.02;;;7.84;84.54
75188;BME280;63762;51.334;22.108;2023-04-25T19:39:25;100746.09;;;7.90;84.05
75188;BME280;63762;51.334;22.108;2023-04-25T19:49:32;100752.91;;;7.69;85.23
75188;BME280;63762;51.334;22.108;2023-04-25T19:59:39;100740.05;;;7.74;85.25
75188;BME280;63762;51.334;22.108;2023-04-25T20:09:46;100750.08;;;7.58;85.35
75188;BME280;63762;51.334;22.108;2023-04-25T20:19:53;100757.07;;;7.60;84.80
75188;BME280;63762;51.334;22.108;2023-04-25T20:30:00;100763.16;;;7.36;84.85
75188;BME280;63762;51.334;22.108;2023-04-25T20:40:08;100766.65;;;7.50;84.17
75188;BME280;63762;51.334;22.108;2023-04-25T20:50:15;100758.38;;;7.41;83.78
75188;BME280;63762;51.334;22.108;2023-04-25T21:00:22;100774.98;;;7.19;84.58
75188;BME280;63762;51.334;22.108;2023-04-25T21:10:29;100768.38;;;7.25;84.43
75188;BME280;63762;51.334;22.108;2023-04-25T21:20:38;100769.98;;;7.27;83.86
75188;BME280;63762;51.334;22.108;2023-04-25T21:30:43;100766.67;;;7.24;83.91
75188;BME280;63762;51.334;22.108;2023-04-25T21:40:51;100772.31;;;7.19;84.07
75188;BME280;63762;51.334;22.108;2023-04-25T21:50:58;100769.24;;;7.25;84.53
75188;BME280;63762;51.334;22.108;2023-04-25T22:01:05;100777.81;;;7.30;84.35
75188;BME280;63762;51.334;22.108;2023-04-25T22:11:12;100769.64;;;7.19;83.78
75188;BME280;63762;51.334;22.108;2023-04-25T22:21:19;100775.20;;;7.16;84.64
75188;BME280;63762;51.334;22.108;2023-04-25T22:31:26;100777.18;;;7.27;84.15
75188;BME280;63762;51.334;22.108;2023-04-25T22:41:33;100788.52;;;7.30;84.43
75188;BME280;63762;51.334;22.108;2023-04-25T22:51:40;100787.88;;;7.27;84.76
75188;BME280;63762;51.334;22.108;2023-04-25T23:01:47;100780.66;;;7.41;84.93
75188;BME280;63762;51.334;22.108;2023-04-25T23:11:55;100801.68;;;7.47;85.19
75188;BME280;63762;51.334;22.108;2023-04-25T23:22:02;100778.70;;;7.57;85.18
75188;BME280;63762;51.334;22.108;2023-04-25T23:32:09;100779.63;;;7.56;85.51
75188;BME280;63762;51.334;22.108;2023-04-25T23:42:17;100781.47;;;7.56;85.57
75188;BME280;63762;51.334;22.108;2023-04-25T23:52:23;100779.43;;;7.59;85.19
